sensor_id;sensor_type;location;lat;lon;timestamp;P1;P2;P0
27143;PMS1003;14672;50.250;8.312;2022-12-01T00:01:17;27.50;25.50;11.75
27143;PMS1003;14672;50.250;8.312;2022-12-01T00:03:43;27.00;26.25;11.50
27143;PMS1003;14672;50.250;8.312;2022-12-01T00:06:13;29.00;25.00;9.00
27143;PMS1003;14672;50.250;8.312;2022-12-01T00:08:43;28.00;24.75;14.00
27143;PMS1003;14672;50.250;8.312;2022-12-01T00:11:29;31.50;24.50;11.25
27143;PMS1003;14672;50.250;8.312;2022-12-01T00:13:55;25.50;23.75;11.25
27143;PMS1003;14672;50.250;8.312;2022-12-01T00:16:21;37.00;33.33;14.00
27143;PMS1003;14672;50.250;8.312;2022-12-01T00:18:50;26.75;25.75;12.75
27143;PMS1003;14672;50.250;8.312;2022-12-01T00:21:18;31.25;29.25;14.50
27143;PMS1003;14672;50.250;8.312;2022-12-01T00:23:46;29.50;28.00;11.50
27143;PMS1003;14672;50.250;8.312;2022-12-01T00:26:16;29.25;26.00;12.50
27143;PMS1003;14672;50.250;8.312;2022-12-01T00:28:43;30.75;28.50;12.00
27143;PMS1003;14672;50.250;8.312;2022-12-01T00:31:17;24.00;22.75;12.25
27143;PMS1003;14672;50.250;8.312;2022-12-01T00:33:44;30.50;27.75;14.50
27143;PMS1003;14672;50.250;8.312;2022-12-01T00:36:10;31.00;26.50;12.75
27143;PMS1003;14672;50.250;8.312;2022-12-01T00:38:37;31.50;28.25;12.50
27143;PMS1003;14672;50.250;8.312;2022-12-01T00:41:03;27.00;25.25;11.50
27143;PMS1003;14672;50.250;8.312;2022-12-01T00:43:30;26.25;25.50;12.25
27143;PMS1003;14672;50.250;8.312;2022-12-01T00:45:56;30.50;26.25;12.00
27143;PMS1003;14672;50.250;8.312;2022-12-01T00:48:22;27.25;27.25;16.25
27143;PMS1003;14672;50.250;8.312;2022-12-01T00:50:49;30.00;29.75;13.50
27143;PMS1003;14672;50.250;8.312;2022-12-01T00:53:17;33.50;33.25;17.50
27143;PMS1003;14672;50.250;8.312;2022-12-01T00:55:43;30.33;28.00;10.33
27143;PMS1003;14672;50.250;8.312;2022-12-01T00:58:09;28.00;27.67;13.00
27143;PMS1003;14672;50.250;8.312;2022-12-01T01:00:35;31.50;28.25;14.00
27143;PMS1003;14672;50.250;8.312;2022-12-01T01:03:03;25.50;23.50;11.25
27143;PMS1003;14672;50.250;8.312;2022-12-01T01:05:33;30.75;29.75;14.50
27143;PMS1003;14672;50.250;8.312;2022-12-01T01:08:10;30.75;27.75;11.75
27143;PMS1003;14672;50.250;8.312;2022-12-01T01:10:42;22.50;20.75;11.25
27143;PMS1003;14672;50.250;8.312;2022-12-01T01:13:11;30.00;26.75;11.75
27143;PMS1003;14672;50.250;8.312;2022-12-01T01:15:38;25.50;23.00;10.00
27143;PMS1003;14672;50.250;8.312;2022-12-01T01:18:04;36.75;28.25;10.75
27143;PMS1003;14672;50.250;8.312;2022-12-01T01:20:31;31.00;29.25;13.25
27143;PMS1003;14672;50.250;8.312;2022-12-01T01:22:57;27.25;26.00;12.00
27143;PMS1003;14672;50.250;8.312;2022-12-01T01:25:23;26.75;23.75;10.75
27143;PMS1003;14672;50.250;8.312;2022-12-01T01:27:49;28.75;28.50;14.50
27143;PMS1003;14672;50.250;8.312;2022-12-01T01:30:15;32.67;27.33;15.67
27143;PMS1003;14672;50.250;8.312;2022-12-01T01:32:42;27.25;27.25;15.25
27143;PMS1003;14672;50.250;8.312;2022-12-01T01:35:08;29.00;26.67;12.33
27143;PMS1003;14672;50.250;8.312;2022-12-01T01:37:34;33.00;27.33;14.00
27143;PMS1003;14672;50.250;8.312;2022-12-01T01:40:00;30.00;28.67;12.67
27143;PMS1003;14672;50.250;8.312;2022-12-01T01:42:25;28.33;25.00;13.67
27143;PMS1003;14672;50.250;8.312;2022-12-01T01:44:55;31.00;25.00;12.00
27143;PMS1003;14672;50.250;8.312;2022-12-01T01:47:34;33.75;31.00;12.50
27143;PMS1003;14672;50.250;8.312;2022-12-01T01:50:07;33.75;30.50;15.00
27143;PMS1003;14672;50.250;8.312;2022-12-01T01:52:50;33.25;31.50;14.75
27143;PMS1003;14672;50.250;8.312;2022-12-01T01:55:24;33.00;28.00;14.75
27143;PMS1003;14672;50.250;8.312;2022-12-01T01:57:51;35.75;31.75;16.00
27143;PMS1003;14672;50.250;8.312;2022-12-01T02:00:17;47.67;43.67;20.00
27143;PMS1003;14672;50.250;8.312;2022-12-01T02:02:46;43.75;38.00;18.50
27143;PMS1003;14672;50.250;8.312;2022-12-01T02:05:20;41.33;35.33;16.67
27143;PMS1003;14672;50.250;8.312;2022-12-01T02:07:58;36.75;33.25;18.25
27143;PMS1003;14672;50.250;8.312;2022-12-01T02:10:35;45.25;40.00;19.50
27143;PMS1003;14672;50.250;8.312;2022-12-01T02:25:27;35.50;33.25;16.75
27143;PMS1003;14672;50.250;8.312;2022-12-01T02:31:29;33.50;31.75;16.25
27143;PMS1003;14672;50.250;8.312;2022-12-01T02:34:38;39.50;37.50;20.25
27143;PMS1003;14672;50.250;8.312;2022-12-01T02:37:23;41.25;38.25;19.25
27143;PMS1003;14672;50.250;8.312;2022-12-01T02:43:03;40.50;35.75;15.25
27143;PMS1003;14672;50.250;8.312;2022-12-01T02:46:05;43.50;37.00;19.25
27143;PMS1003;14672;50.250;8.312;2022-12-01T02:48:38;34.00;31.75;15.00
27143;PMS1003;14672;50.250;8.312;2022-12-01T02:51:10;25.50;23.00;10.50
27143;PMS1003;14672;50.250;8.312;2022-12-01T02:53:52;39.00;28.25;14.75
27143;PMS1003;14672;50.250;8.312;2022-12-01T02:56:21;38.25;34.50;15.25
27143;PMS1003;14672;50.250;8.312;2022-12-01T02:58:48;33.50;28.25;13.50
27143;PMS1003;14672;50.250;8.312;2022-12-01T03:04:00;34.75;31.75;15.25
27143;PMS1003;14672;50.250;8.312;2022-12-01T03:21:55;36.25;35.75;15.50
27143;PMS1003;14672;50.250;8.312;2022-12-01T03:24:48;41.50;37.50;17.00
27143;PMS1003;14672;50.250;8.312;2022-12-01T03:27:18;42.50;35.75;17.75
27143;PMS1003;14672;50.250;8.312;2022-12-01T03:29:50;40.00;37.25;17.75
27143;PMS1003;14672;50.250;8.312;2022-12-01T03:32:24;41.00;36.75;19.00
27143;PMS1003;14672;50.250;8.312;2022-12-01T03:38:04;42.00;38.25;15.75
27143;PMS1003;14672;50.250;8.312;2022-12-01T03:40:38;43.75;36.25;15.25
27143;PMS1003;14672;50.250;8.312;2022-12-01T03:43:06;44.25;40.25;17.00
27143;PMS1003;14672;50.250;8.312;2022-12-01T03:45:45;46.00;38.00;17.00
27143;PMS1003;14672;50.250;8.312;2022-12-01T03:48:36;43.00;39.00;20.25
27143;PMS1003;14672;50.250;8.312;2022-12-01T03:51:08;44.25;36.50;17.25
27143;PMS1003;14672;50.250;8.312;2022-12-01T03:56:58;57.75;43.50;17.75
27143;PMS1003;14672;50.250;8.312;2022-12-01T03:59:37;52.50;43.00;22.50
27143;PMS1003;14672;50.250;8.312;2022-12-01T04:02:06;49.50;43.50;20.00
27143;PMS1003;14672;50.250;8.312;2022-12-01T04:04:32;47.00;42.75;20.75
27143;PMS1003;14672;50.250;8.312;2022-12-01T04:06:58;45.00;37.00;16.00
27143;PMS1003;14672;50.250;8.312;2022-12-01T04:09:24;48.75;43.75;21.75
27143;PMS1003;14672;50.250;8.312;2022-12-01T04:11:50;41.67;37.00;18.67
27143;PMS1003;14672;50.250;8.312;2022-12-01T04:14:35;53.75;41.50;18.50
27143;PMS1003;14672;50.250;8.312;2022-12-01T04:17:00;38.33;33.67;15.67
27143;PMS1003;14672;50.250;8.312;2022-12-01T04:19:26;42.67;40.00;21.00
27143;PMS1003;14672;50.250;8.312;2022-12-01T04:21:52;48.67;39.33;20.33
27143;PMS1003;14672;50.250;8.312;2022-12-01T04:24:18;47.00;43.33;18.00
27143;PMS1003;14672;50.250;8.312;2022-12-01T04:26:43;48.67;41.33;21.00
27143;PMS1003;14672;50.250;8.312;2022-12-01T04:29:10;49.50;36.25;18.75
27143;PMS1003;14672;50.250;8.312;2022-12-01T04:31:37;54.75;41.00;23.00
27143;PMS1003;14672;50.250;8.312;2022-12-01T04:34:03;41.33;38.00;15.33
27143;PMS1003;14672;50.250;8.312;2022-12-01T04:36:30;52.75;43.75;20.00
27143;PMS1003;14672;50.250;8.312;2022-12-01T04:38:58;47.00;40.00;24.25
27143;PMS1003;14672;50.250;8.312;2022-12-01T04:41:24;41.00;36.50;19.75
27143;PMS1003;14672;50.250;8.312;2022-12-01T04:43:53;52.67;41.00;20.33
27143;PMS1003;14672;50.250;8.312;2022-12-01T04:46:20;50.50;43.25;18.00
27143;PMS1003;14672;50.250;8.312;2022-12-01T04:48:47;46.25;41.50;19.75
27143;PMS1003;14672;50.250;8.312;2022-12-01T04:51:13;40.50;37.25;18.50
27143;PMS1003;14672;50.250;8.312;2022-12-01T04:53:39;43.00;36.75;16.75
27143;PMS1003;14672;50.250;8.312;2022-12-01T04:56:05;43.00;38.67;20.33
27143;PMS1003;14672;50.250;8.312;2022-12-01T04:58:32;37.50;33.50;18.50
27143;PMS1003;14672;50.250;8.312;2022-12-01T05:01:02;43.75;35.50;15.00
27143;PMS1003;14672;50.250;8.312;2022-12-01T05:03:30;44.25;38.25;20.25
27143;PMS1003;14672;50.250;8.312;2022-12-01T05:06:00;42.33;37.00;19.00
27143;PMS1003;14672;50.250;8.312;2022-12-01T05:08:35;47.00;40.50;20.25
27143;PMS1003;14672;50.250;8.312;2022-12-01T05:11:01;49.00;41.00;19.25
27143;PMS1003;14672;50.250;8.312;2022-12-01T05:13:27;35.50;33.25;16.00
27143;PMS1003;14672;50.250;8.312;2022-12-01T05:15:53;34.33;32.33;15.33
27143;PMS1003;14672;50.250;8.312;2022-12-01T05:18:27;48.75;40.75;18.00
27143;PMS1003;14672;50.250;8.312;2022-12-01T05:20:53;47.00;44.33;20.67
27143;PMS1003;14672;50.250;8.312;2022-12-01T05:23:22;43.25;37.25;18.50
27143;PMS1003;14672;50.250;8.312;2022-12-01T05:25:53;43.50;38.25;16.75
27143;PMS1003;14672;50.250;8.312;2022-12-01T05:28:20;42.75;35.75;16.25
27143;PMS1003;14672;50.250;8.312;2022-12-01T05:30:48;36.25;33.75;16.75
27143;PMS1003;14672;50.250;8.312;2022-12-01T05:33:14;31.50;29.25;13.50
27143;PMS1003;14672;50.250;8.312;2022-12-01T05:35:40;32.25;29.50;15.00
27143;PMS1003;14672;50.250;8.312;2022-12-01T05:38:07;41.50;32.00;14.00
27143;PMS1003;14672;50.250;8.312;2022-12-01T05:40:33;36.50;30.00;15.75
27143;PMS1003;14672;50.250;8.312;2022-12-01T05:42:59;33.50;27.75;12.00
27143;PMS1003;14672;50.250;8.312;2022-12-01T05:45:25;36.33;30.00;15.00
27143;PMS1003;14672;50.250;8.312;2022-12-01T05:47:57;41.00;33.75;16.25
27143;PMS1003;14672;50.250;8.312;2022-12-01T05:50:25;31.50;28.25;13.00
27143;PMS1003;14672;50.250;8.312;2022-12-01T05:52:53;32.00;29.00;14.00
27143;PMS1003;14672;50.250;8.312;2022-12-01T05:55:19;32.33;27.00;15.00
27143;PMS1003;14672;50.250;8.312;2022-12-01T05:57:45;30.75;26.25;13.00
27143;PMS1003;14672;50.250;8.312;2022-12-01T06:00:11;33.50;31.25;12.50
27143;PMS1003;14672;50.250;8.312;2022-12-01T06:02:39;39.25;32.50;15.50
27143;PMS1003;14672;50.250;8.312;2022-12-01T06:05:06;26.50;25.25;11.25
27143;PMS1003;14672;50.250;8.312;2022-12-01T06:07:33;25.75;25.25;11.00
27143;PMS1003;14672;50.250;8.312;2022-12-01T06:09:59;30.50;26.50;11.50
27143;PMS1003;14672;50.250;8.312;2022-12-01T06:12:26;25.75;24.25;11.00
27143;PMS1003;14672;50.250;8.312;2022-12-01T06:14:52;21.50;21.50;11.75
27143;PMS1003;14672;50.250;8.312;2022-12-01T06:17:18;31.67;28.00;10.67
27143;PMS1003;14672;50.250;8.312;2022-12-01T06:19:44;27.67;27.00;11.00
27143;PMS1003;14672;50.250;8.312;2022-12-01T06:22:11;31.00;26.25;9.50
27143;PMS1003;14672;50.250;8.312;2022-12-01T06:24:38;26.50;23.25;9.00
27143;PMS1003;14672;50.250;8.312;2022-12-01T06:27:03;29.00;25.33;11.67
27143;PMS1003;14672;50.250;8.312;2022-12-01T06:29:29;34.33;28.00;14.33
27143;PMS1003;14672;50.250;8.312;2022-12-01T06:31:55;22.33;21.00;10.00
27143;PMS1003;14672;50.250;8.312;2022-12-01T06:34:21;28.00;24.33;10.33
27143;PMS1003;14672;50.250;8.312;2022-12-01T06:36:47;23.67;22.67;12.67
27143;PMS1003;14672;50.250;8.312;2022-12-01T06:39:14;22.33;22.00;11.00
27143;PMS1003;14672;50.250;8.312;2022-12-01T06:41:41;21.75;19.25;11.00
27143;PMS1003;14672;50.250;8.312;2022-12-01T06:44:07;22.25;20.25;8.00
27143;PMS1003;14672;50.250;8.312;2022-12-01T06:46:34;27.00;24.00;11.00
27143;PMS1003;14672;50.250;8.312;2022-12-01T06:48:59;25.00;23.00;10.33
27143;PMS1003;14672;50.250;8.312;2022-12-01T06:51:25;26.67;23.67;10.33
27143;PMS1003;14672;50.250;8.312;2022-12-01T06:53:54;28.33;23.00;9.00
27143;PMS1003;14672;50.250;8.312;2022-12-01T06:56:20;24.25;22.50;10.50
27143;PMS1003;14672;50.250;8.312;2022-12-01T06:58:50;28.00;21.25;7.50
27143;PMS1003;14672;50.250;8.312;2022-12-01T07:01:17;28.25;25.75;11.00
27143;PMS1003;14672;50.250;8.312;2022-12-01T07:03:49;23.00;20.75;10.25
27143;PMS1003;14672;50.250;8.312;2022-12-01T07:06:15;28.25;25.25;11.50
27143;PMS1003;14672;50.250;8.312;2022-12-01T07:08:42;24.50;22.00;10.50
27143;PMS1003;14672;50.250;8.312;2022-12-01T07:11:10;27.25;24.25;12.00
27143;PMS1003;14672;50.250;8.312;2022-12-01T07:13:38;27.75;25.75;11.00
27143;PMS1003;14672;50.250;8.312;2022-12-01T07:16:06;29.50;27.00;12.25
27143;PMS1003;14672;50.250;8.312;2022-12-01T07:18:33;29.25;25.00;11.00
27143;PMS1003;14672;50.250;8.312;2022-12-01T07:21:01;31.50;29.50;17.00
27143;PMS1003;14672;50.250;8.312;2022-12-01T07:23:30;31.00;28.50;17.25
27143;PMS1003;14672;50.250;8.312;2022-12-01T07:25:59;31.33;29.00;15.00
27143;PMS1003;14672;50.250;8.312;2022-12-01T07:28:31;34.75;30.75;14.25
27143;PMS1003;14672;50.250;8.312;2022-12-01T07:31:02;30.00;25.75;11.50
27143;PMS1003;14672;50.250;8.312;2022-12-01T07:33:30;23.25;22.25;11.50
27143;PMS1003;14672;50.250;8.312;2022-12-01T07:35:56;32.75;26.75;11.00
27143;PMS1003;14672;50.250;8.312;2022-12-01T07:38:22;29.25;27.25;12.25
27143;PMS1003;14672;50.250;8.312;2022-12-01T07:40:48;28.25;25.75;13.00
27143;PMS1003;14672;50.250;8.312;2022-12-01T07:43:14;30.67;25.33;11.00
27143;PMS1003;14672;50.250;8.312;2022-12-01T07:45:40;24.00;24.00;12.33
27143;PMS1003;14672;50.250;8.312;2022-12-01T07:48:05;29.00;29.00;12.00
27143;PMS1003;14672;50.250;8.312;2022-12-01T07:50:31;34.00;29.67;11.67
27143;PMS1003;14672;50.250;8.312;2022-12-01T07:52:57;26.67;24.67;11.33
27143;PMS1003;14672;50.250;8.312;2022-12-01T07:55:23;30.33;29.33;13.00
27143;PMS1003;14672;50.250;8.312;2022-12-01T07:57:48;26.67;24.00;11.00
27143;PMS1003;14672;50.250;8.312;2022-12-01T08:00:14;27.00;27.00;11.67
27143;PMS1003;14672;50.250;8.312;2022-12-01T08:02:40;25.75;21.25;8.75
27143;PMS1003;14672;50.250;8.312;2022-12-01T08:05:06;32.33;30.33;13.00
27143;PMS1003;14672;50.250;8.312;2022-12-01T08:07:33;32.00;30.75;15.00
27143;PMS1003;14672;50.250;8.312;2022-12-01T08:09:58;35.00;33.33;14.67
27143;PMS1003;14672;50.250;8.312;2022-12-01T08:12:24;31.33;25.33;12.33
27143;PMS1003;14672;50.250;8.312;2022-12-01T08:14:50;36.00;31.00;11.33
27143;PMS1003;14672;50.250;8.312;2022-12-01T08:17:15;30.67;26.33;13.00
27143;PMS1003;14672;50.250;8.312;2022-12-01T08:19:41;23.00;21.67;11.00
27143;PMS1003;14672;50.250;8.312;2022-12-01T08:22:07;30.67;29.00;13.00
27143;PMS1003;14672;50.250;8.312;2022-12-01T08:24:33;25.33;22.67;11.00
27143;PMS1003;14672;50.250;8.312;2022-12-01T08:26:58;31.67;29.00;12.33
27143;PMS1003;14672;50.250;8.312;2022-12-01T08:29:24;32.00;26.00;11.00
27143;PMS1003;14672;50.250;8.312;2022-12-01T08:31:50;27.00;25.67;12.33
27143;PMS1003;14672;50.250;8.312;2022-12-01T08:34:16;33.33;28.33;11.00
27143;PMS1003;14672;50.250;8.312;2022-12-01T08:36:42;28.00;27.00;11.75
27143;PMS1003;14672;50.250;8.312;2022-12-01T08:39:07;29.33;25.00;13.33
27143;PMS1003;14672;50.250;8.312;2022-12-01T08:41:33;29.00;27.33;12.33
27143;PMS1003;14672;50.250;8.312;2022-12-01T08:43:59;31.00;27.33;13.00
27143;PMS1003;14672;50.250;8.312;2022-12-01T08:46:26;36.00;30.00;11.00
27143;PMS1003;14672;50.250;8.312;2022-12-01T08:48:57;54.75;39.75;19.25
27143;PMS1003;14672;50.250;8.312;2022-12-01T08:51:23;40.33;34.67;16.67
27143;PMS1003;14672;50.250;8.312;2022-12-01T08:53:50;36.00;30.25;12.00
27143;PMS1003;14672;50.250;8.312;2022-12-01T08:56:21;31.00;30.33;13.00
27143;PMS1003;14672;50.250;8.312;2022-12-01T08:58:54;35.50;33.00;13.00
27143;PMS1003;14672;50.250;8.312;2022-12-01T09:01:20;32.50;27.75;12.25
27143;PMS1003;14672;50.250;8.312;2022-12-01T09:03:47;29.00;27.00;10.75
27143;PMS1003;14672;50.250;8.312;2022-12-01T09:06:17;33.00;28.00;14.75
27143;PMS1003;14672;50.250;8.312;2022-12-01T09:08:46;32.00;28.50;11.50
27143;PMS1003;14672;50.250;8.312;2022-12-01T09:11:17;31.00;28.00;14.00
27143;PMS1003;14672;50.250;8.312;2022-12-01T09:13:44;34.50;33.25;15.50
27143;PMS1003;14672;50.250;8.312;2022-12-01T09:16:11;32.25;29.25;14.00
27143;PMS1003;14672;50.250;8.312;2022-12-01T09:18:40;35.00;32.25;16.00
27143;PMS1003;14672;50.250;8.312;2022-12-01T09:21:10;35.25;34.50;14.00
27143;PMS1003;14672;50.250;8.312;2022-12-01T09:23:43;29.50;26.50;14.25
27143;PMS1003;14672;50.250;8.312;2022-12-01T09:26:10;38.75;34.75;14.75
27143;PMS1003;14672;50.250;8.312;2022-12-01T09:28:37;35.50;33.00;16.75
27143;PMS1003;14672;50.250;8.312;2022-12-01T09:31:04;46.00;44.00;26.75
27143;PMS1003;14672;50.250;8.312;2022-12-01T09:33:36;40.00;36.50;17.75
27143;PMS1003;14672;50.250;8.312;2022-12-01T09:36:03;37.00;34.50;17.00
27143;PMS1003;14672;50.250;8.312;2022-12-01T09:38:32;35.50;32.50;16.25
27143;PMS1003;14672;50.250;8.312;2022-12-01T09:41:03;43.25;39.75;20.75
27143;PMS1003;14672;50.250;8.312;2022-12-01T09:43:47;41.00;37.25;18.25
27143;PMS1003;14672;50.250;8.312;2022-12-01T09:46:22;45.50;32.75;14.50
27143;PMS1003;14672;50.250;8.312;2022-12-01T09:48:55;42.50;38.00;19.25
27143;PMS1003;14672;50.250;8.312;2022-12-01T09:51:25;41.00;38.00;16.25
27143;PMS1003;14672;50.250;8.312;2022-12-01T09:53:56;48.25;40.75;19.00
27143;PMS1003;14672;50.250;8.312;2022-12-01T09:56:26;42.75;37.25;20.50
27143;PMS1003;14672;50.250;8.312;2022-12-01T09:58:57;46.50;42.50;21.00
27143;PMS1003;14672;50.250;8.312;2022-12-01T10:06:47;45.50;39.25;18.75
27143;PMS1003;14672;50.250;8.312;2022-12-01T10:12:17;39.50;37.00;21.50
27143;PMS1003;14672;50.250;8.312;2022-12-01T10:14:47;50.25;38.50;18.75
27143;PMS1003;14672;50.250;8.312;2022-12-01T10:17:30;49.00;44.00;20.25
27143;PMS1003;14672;50.250;8.312;2022-12-01T10:23:21;40.25;36.00;17.25
27143;PMS1003;14672;50.250;8.312;2022-12-01T10:26:23;46.75;43.75;21.25
27143;PMS1003;14672;50.250;8.312;2022-12-01T10:29:12;46.25;41.75;20.75
27143;PMS1003;14672;50.250;8.312;2022-12-01T10:32:02;49.25;41.75;18.75
27143;PMS1003;14672;50.250;8.312;2022-12-01T10:35:03;51.75;44.50;22.25
27143;PMS1003;14672;50.250;8.312;2022-12-01T10:37:29;50.75;43.00;26.50
27143;PMS1003;14672;50.250;8.312;2022-12-01T10:39:56;40.75;38.00;19.50
27143;PMS1003;14672;50.250;8.312;2022-12-01T10:42:31;45.50;39.25;19.75
27143;PMS1003;14672;50.250;8.312;2022-12-01T10:56:14;45.00;41.75;20.75
27143;PMS1003;14672;50.250;8.312;2022-12-01T10:58:47;47.00;39.75;20.00
27143;PMS1003;14672;50.250;8.312;2022-12-01T11:01:30;40.75;36.25;16.50
27143;PMS1003;14672;50.250;8.312;2022-12-01T11:06:54;47.50;41.75;17.50
27143;PMS1003;14672;50.250;8.312;2022-12-01T11:09:22;40.00;38.50;18.25
27143;PMS1003;14672;50.250;8.312;2022-12-01T11:12:00;47.00;42.25;20.00
27143;PMS1003;14672;50.250;8.312;2022-12-01T11:17:14;49.75;42.75;20.75
27143;PMS1003;14672;50.250;8.312;2022-12-01T11:19:41;46.75;42.00;20.75
27143;PMS1003;14672;50.250;8.312;2022-12-01T11:22:28;52.50;48.00;22.00
27143;PMS1003;14672;50.250;8.312;2022-12-01T11:24:58;50.50;46.25;21.75
27143;PMS1003;14672;50.250;8.312;2022-12-01T11:27:34;50.75;45.75;23.25
27143;PMS1003;14672;50.250;8.312;2022-12-01T11:30:22;59.00;50.75;23.75
27143;PMS1003;14672;50.250;8.312;2022-12-01T11:32:54;44.75;39.50;20.75
27143;PMS1003;14672;50.250;8.312;2022-12-01T11:35:31;38.50;36.00;20.50
27143;PMS1003;14672;50.250;8.312;2022-12-01T11:38:03;51.50;39.25;20.25
27143;PMS1003;14672;50.250;8.312;2022-12-01T11:40:31;43.25;39.00;19.25
27143;PMS1003;14672;50.250;8.312;2022-12-01T11:43:15;44.00;36.50;16.50
27143;PMS1003;14672;50.250;8.312;2022-12-01T11:45:59;39.75;36.25;16.50
27143;PMS1003;14672;50.250;8.312;2022-12-01T11:48:33;46.75;40.50;18.75
27143;PMS1003;14672;50.250;8.312;2022-12-01T11:51:13;38.25;35.50;17.25
27143;PMS1003;14672;50.250;8.312;2022-12-01T11:53:43;41.75;39.75;18.50
27143;PMS1003;14672;50.250;8.312;2022-12-01T11:58:45;40.25;38.25;19.00
27143;PMS1003;14672;50.250;8.312;2022-12-01T12:01:33;50.25;39.75;18.75
27143;PMS1003;14672;50.250;8.312;2022-12-01T12:07:36;49.50;38.75;19.50
27143;PMS1003;14672;50.250;8.312;2022-12-01T12:30:22;46.00;41.75;20.50
27143;PMS1003;14672;50.250;8.312;2022-12-01T12:41:35;59.00;55.75;30.00
27143;PMS1003;14672;50.250;8.312;2022-12-01T12:49:54;58.00;46.75;21.50
27143;PMS1003;14672;50.250;8.312;2022-12-01T12:52:48;51.75;45.50;23.75
27143;PMS1003;14672;50.250;8.312;2022-12-01T12:55:25;43.00;40.00;20.75
27143;PMS1003;14672;50.250;8.312;2022-12-01T12:58:08;50.25;41.50;19.00
27143;PMS1003;14672;50.250;8.312;2022-12-01T13:00:49;49.50;45.50;22.50
27143;PMS1003;14672;50.250;8.312;2022-12-01T13:06:24;57.75;48.75;21.50
27143;PMS1003;14672;50.250;8.312;2022-12-01T13:09:25;60.75;52.25;24.25
27143;PMS1003;14672;50.250;8.312;2022-12-01T13:12:05;49.25;44.25;22.75
27143;PMS1003;14672;50.250;8.312;2022-12-01T13:15:40;53.50;45.00;23.25
27143;PMS1003;14672;50.250;8.312;2022-12-01T13:17:45;51.25;47.50;22.50
27143;PMS1003;14672;50.250;8.312;2022-12-01T13:20:40;47.00;44.75;20.25
27143;PMS1003;14672;50.250;8.312;2022-12-01T13:23:07;50.50;44.25;20.50
27143;PMS1003;14672;50.250;8.312;2022-12-01T13:25:40;51.25;48.75;24.75
27143;PMS1003;14672;50.250;8.312;2022-12-01T13:28:19;50.75;46.00;23.25
27143;PMS1003;14672;50.250;8.312;2022-12-01T13:33:29;56.00;46.50;25.25
27143;PMS1003;14672;50.250;8.312;2022-12-01T13:35:58;56.50;48.75;26.25
27143;PMS1003;14672;50.250;8.312;2022-12-01T13:38:26;57.25;51.50;26.75
27143;PMS1003;14672;50.250;8.312;2022-12-01T13:44:03;53.75;49.25;21.75
27143;PMS1003;14672;50.250;8.312;2022-12-01T13:49:48;52.25;44.75;22.50
27143;PMS1003;14672;50.250;8.312;2022-12-01T13:57:35;60.75;53.25;31.25
27143;PMS1003;14672;50.250;8.312;2022-12-01T14:11:01;53.50;50.00;26.50
27143;PMS1003;14672;50.250;8.312;2022-12-01T14:14:02;48.75;45.50;23.00
27143;PMS1003;14672;50.250;8.312;2022-12-01T14:16:47;61.50;50.25;21.75
27143;PMS1003;14672;50.250;8.312;2022-12-01T14:24:57;55.75;49.00;26.25
27143;PMS1003;14672;50.250;8.312;2022-12-01T14:27:40;60.75;54.50;24.00
27143;PMS1003;14672;50.250;8.312;2022-12-01T14:39:12;51.25;48.75;22.75
27143;PMS1003;14672;50.250;8.312;2022-12-01T14:45:16;51.50;43.00;21.00
27143;PMS1003;14672;50.250;8.312;2022-12-01T14:48:02;44.00;42.50;19.00
27143;PMS1003;14672;50.250;8.312;2022-12-01T14:50:41;60.75;55.00;29.50
27143;PMS1003;14672;50.250;8.312;2022-12-01T14:53:25;49.25;39.25;22.25
27143;PMS1003;14672;50.250;8.312;2022-12-01T14:55:59;48.00;44.50;21.75
27143;PMS1003;14672;50.250;8.312;2022-12-01T14:58:35;41.75;39.75;18.75
27143;PMS1003;14672;50.250;8.312;2022-12-01T15:01:19;50.33;40.00;19.33
27143;PMS1003;14672;50.250;8.312;2022-12-01T15:03:47;46.50;41.00;20.75
27143;PMS1003;14672;50.250;8.312;2022-12-01T15:06:22;45.25;43.50;20.50
27143;PMS1003;14672;50.250;8.312;2022-12-01T15:11:47;55.75;46.50;21.25
27143;PMS1003;14672;50.250;8.312;2022-12-01T15:16:59;54.75;48.50;23.00
27143;PMS1003;14672;50.250;8.312;2022-12-01T15:22:06;47.75;38.75;17.50
27143;PMS1003;14672;50.250;8.312;2022-12-01T15:24:41;38.00;36.50;18.50
27143;PMS1003;14672;50.250;8.312;2022-12-01T15:27:27;41.75;36.75;18.75
27143;PMS1003;14672;50.250;8.312;2022-12-01T15:29:55;50.25;43.25;22.25
27143;PMS1003;14672;50.250;8.312;2022-12-01T15:32:27;34.50;33.00;18.25
27143;PMS1003;14672;50.250;8.312;2022-12-01T15:34:56;43.25;38.25;18.75
27143;PMS1003;14672;50.250;8.312;2022-12-01T15:37:26;40.50;37.50;18.00
27143;PMS1003;14672;50.250;8.312;2022-12-01T15:39:57;50.00;44.25;21.00
27143;PMS1003;14672;50.250;8.312;2022-12-01T15:42:30;37.25;32.50;15.75
27143;PMS1003;14672;50.250;8.312;2022-12-01T15:53:05;104.80;75.60;44.40
27143;PMS1003;14672;50.250;8.312;2022-12-01T15:55:45;73.75;63.00;31.00
27143;PMS1003;14672;50.250;8.312;2022-12-01T15:58:26;54.75;50.25;27.75
27143;PMS1003;14672;50.250;8.312;2022-12-01T16:00:57;67.25;51.75;26.25
27143;PMS1003;14672;50.250;8.312;2022-12-01T16:03:26;51.75;43.50;21.00
27143;PMS1003;14672;50.250;8.312;2022-12-01T16:05:52;54.00;44.50;24.00
27143;PMS1003;14672;50.250;8.312;2022-12-01T16:08:20;43.00;37.50;21.50
27143;PMS1003;14672;50.250;8.312;2022-12-01T16:13:46;67.00;59.25;27.00
27143;PMS1003;14672;50.250;8.312;2022-12-01T16:16:39;45.50;40.00;19.75
27143;PMS1003;14672;50.250;8.312;2022-12-01T16:21:51;51.00;46.25;19.75
27143;PMS1003;14672;50.250;8.312;2022-12-01T16:24:47;45.00;42.00;22.25
27143;PMS1003;14672;50.250;8.312;2022-12-01T16:27:18;47.75;41.25;19.00
27143;PMS1003;14672;50.250;8.312;2022-12-01T16:35:05;52.50;40.00;20.75
27143;PMS1003;14672;50.250;8.312;2022-12-01T16:37:55;59.00;52.25;28.75
27143;PMS1003;14672;50.250;8.312;2022-12-01T16:40:22;62.75;53.50;30.50
27143;PMS1003;14672;50.250;8.312;2022-12-01T16:42:49;43.25;43.25;21.00
27143;PMS1003;14672;50.250;8.312;2022-12-01T16:45:16;52.33;47.00;23.00
27143;PMS1003;14672;50.250;8.312;2022-12-01T16:47:44;59.25;47.00;24.00
27143;PMS1003;14672;50.250;8.312;2022-12-01T16:50:12;67.00;51.75;24.75
27143;PMS1003;14672;50.250;8.312;2022-12-01T16:52:40;53.50;48.25;25.00
27143;PMS1003;14672;50.250;8.312;2022-12-01T16:57:51;72.50;58.25;30.00
27143;PMS1003;14672;50.250;8.312;2022-12-01T17:00:17;64.67;52.67;27.67
27143;PMS1003;14672;50.250;8.312;2022-12-01T17:02:43;57.50;50.00;26.25
27143;PMS1003;14672;50.250;8.312;2022-12-01T17:05:09;40.67;38.00;21.33
27143;PMS1003;14672;50.250;8.312;2022-12-01T17:07:35;63.50;53.50;25.25
27143;PMS1003;14672;50.250;8.312;2022-12-01T17:10:01;57.00;43.67;21.33
27143;PMS1003;14672;50.250;8.312;2022-12-01T17:12:28;53.50;46.75;22.75
27143;PMS1003;14672;50.250;8.312;2022-12-01T17:14:53;42.33;40.00;19.00
27143;PMS1003;14672;50.250;8.312;2022-12-01T17:17:19;51.25;39.00;17.50